TimeEST,TemperatureF,Dew PointF,Humidity,Sea Level PressureIn,VisibilityMPH,Wind Direction,Wind SpeedMPH,Gust SpeedMPH,PrecipitationIn,Events,Conditions,WindDirDegrees,DateUTC
12:18 AM,30.2,24.8,80,29.74,1.2,East,18.4,35.7,0.00,Snow,Light Snow,90,2012-12-27 05:18:00
12:37 AM,30.2,24.8,80,29.72,1.5,East,15.0,27.6,0.00,Snow,Light Snow,90,2012-12-27 05:37:00
12:52 AM,30.9,25.0,79,29.72,1.8,East,17.3,33.4,0.00,Snow,Light Snow,100,2012-12-27 05:52:00
1:24 AM,32.0,24.8,75,29.67,2.5,East,9.2,27.6,0.00,Snow,Light Snow,100,2012-12-27 06:24:00
1:52 AM,32.0,24.1,73,29.68,2.5,East,10.4,20.7,0.00,Snow,Light Snow,90,2012-12-27 06:52:00
2:10 AM,30.2,24.8,80,29.65,1.8,East,13.8,24.2,0.01,Snow,Light Snow,90,2012-12-27 07:10:00
2:52 AM,30.9,24.1,76,29.64,2.0,East,15.0,28.8,0.01,Snow,Light Snow,90,2012-12-27 07:52:00
3:05 AM,30.2,24.8,80,29.59,1.8,East,25.3,36.8,0.00,Snow,Light Snow,100,2012-12-27 08:05:00
3:47 AM,32.0,24.8,75,29.57,2.0,East,15.0,29.9,0.01,Snow,Light Snow,90,2012-12-27 08:47:00
3:52 AM,32.0,24.1,73,29.59,1.5,East,8.1,27.6,0.01,Snow,Light Snow,100,2012-12-27 08:52:00
3:59 AM,30.2,24.8,80,29.57,1.2,ESE,10.4,20.7,0.00,Snow,Light Snow,110,2012-12-27 08:59:00
4:03 AM,32.0,24.8,75,29.56,2.0,SE,11.5,23.0,0.00,Snow,Light Snow,130,2012-12-27 09:03:00
4:26 AM,32.0,24.8,75,29.55,1.5,ESE,19.6,26.5,0.01,Snow,Light Snow,120,2012-12-27 09:26:00
4:49 AM,32.0,24.8,75,29.54,2.0,ESE,11.5,20.7,0.02,Snow,Light Snow,110,2012-12-27 09:49:00
4:52 AM,32.0,25.0,75,29.57,2.0,East,9.2,19.6,0.02,Snow,Light Snow,90,2012-12-27 09:52:00
5:23 AM,32.0,26.6,80,29.51,1.5,East,13.8,21.9,0.01,Snow,Light Snow,100,2012-12-27 10:23:00
5:52 AM,32.0,25.0,75,29.54,2.5,East,12.7,18.4,0.01,Snow,Light Snow,100,2012-12-27 10:52:00
5:59 AM,32.0,24.8,75,29.51,3.0,East,15.0,24.2,0.00,Snow,Light Snow,100,2012-12-27 10:59:00
6:07 AM,32.0,24.8,75,29.50,2.0,East,15.0,26.5,0.00,Snow,Light Snow,90,2012-12-27 11:07:00
6:20 AM,32.0,24.8,75,29.49,3.0,East,11.5,25.3,0.00,Snow,Light Snow,90,2012-12-27 11:20:00
6:40 AM,32.0,24.8,75,29.49,2.5,ESE,16.1,26.5,0.00,Snow,Light Snow,110,2012-12-27 11:40:00
6:47 AM,32.0,24.8,75,29.49,1.2,ESE,18.4,26.5,0.01,Snow,Light Snow,120,2012-12-27 11:47:00
6:52 AM,30.9,26.1,82,29.52,0.8,ESE,15.0,26.5,0.01,Snow,Light Snow,120,2012-12-27 11:52:00
7:08 AM,30.2,26.6,86,29.50,0.5,ESE,13.8,23.0,0.01,Fog-Snow,Snow,110,2012-12-27 12:08:00
7:19 AM,30.2,26.6,86,29.50,0.2,ESE,16.1,24.2,0.02,Fog-Snow,Heavy Snow,120,2012-12-27 12:19:00
7:31 AM,30.2,26.6,86,29.49,0.5,ESE,13.8,24.2,0.03,Fog-Snow,Snow,110,2012-12-27 12:31:00
7:52 AM,30.9,27.0,85,29.51,0.5,SE,16.1,24.2,0.05,Fog-Snow,Snow,140,2012-12-27 12:52:00
8:08 AM,30.2,26.6,86,29.47,0.2,ESE,12.7,23.0,0.04,Fog-Snow,Snow,110,2012-12-27 13:08:00
8:22 AM,30.2,26.6,86,29.46,0.2,SE,11.5,18.4,0.07,Fog-Snow,Light Snow,140,2012-12-27 13:22:00
8:29 AM,32.0,26.6,80,29.46,0.8,SE,10.4,-,0.07,Snow,Light Snow,140,2012-12-27 13:29:00
8:38 AM,33.8,26.6,75,29.45,0.8,SE,10.4,19.6,0.07,Snow,Light Snow,140,2012-12-27 13:38:00
8:47 AM,32.0,26.6,80,29.45,0.8,SE,11.5,19.6,0.08,Snow,Light Snow,130,2012-12-27 13:47:00
8:52 AM,32.0,27.0,82,29.47,0.5,SE,10.4,19.6,0.08,Snow,Snow,140,2012-12-27 13:52:00
9:20 AM,33.8,26.6,75,29.46,1.5,ESE,10.4,21.9,0.02,Snow,Light Snow,120,2012-12-27 14:20:00
9:29 AM,33.8,24.8,70,29.45,2.0,SE,12.7,20.7,0.02,Snow,Light Snow,130,2012-12-27 14:29:00
9:44 AM,33.8,26.6,75,29.45,1.2,Calm,Calm,-,0.04,Snow,Light Snow,0,2012-12-27 14:44:00
9:52 AM,33.1,26.1,75,29.48,1.0,Variable,6.9,19.6,0.04,Snow,Light Snow,0,2012-12-27 14:52:00
10:04 AM,33.8,26.6,75,29.45,0.8,East,9.2,16.1,0.01,Snow,Light Snow,100,2012-12-27 15:04:00
10:17 AM,33.8,26.6,75,29.45,1.0,Variable,6.9,-,0.01,Snow,Light Snow,0,2012-12-27 15:17:00
10:35 AM,33.8,28.4,81,29.46,1.8,Variable,3.5,-,0.02,Snow,Light Snow,0,2012-12-27 15:35:00
10:52 AM,33.1,28.9,85,29.48,1.0,NW,6.9,-,0.02,Snow,Light Snow,310,2012-12-27 15:52:00
11:00 AM,32.0,28.4,87,29.45,0.5,NNW,9.2,-,0.00,Fog-Snow,Snow,330,2012-12-27 16:00:00
11:16 AM,30.2,26.6,86,29.45,0.2,NW,11.5,19.6,0.01,Fog-Snow,Snow,310,2012-12-27 16:16:00
11:43 AM,28.4,24.8,86,29.46,0.2,NW,8.1,19.6,0.04,Fog-Snow,Snow,320,2012-12-27 16:43:00
11:52 AM,28.0,24.1,85,29.49,0.2,NW,9.2,19.6,0.06,Fog-Snow,Snow,320,2012-12-27 16:52:00
12:49 PM,26.6,23.0,86,29.47,0.5,Variable,6.9,17.3,0.07,Fog-Snow,Light Snow,0,2012-12-27 17:49:00
12:52 PM,27.0,23.0,85,29.50,0.5,NW,8.1,17.3,0.07,Fog-Snow,Light Snow,310,2012-12-27 17:52:00
1:02 PM,26.6,23.0,86,29.48,0.5,Variable,6.9,17.3,0.00,Fog-Snow,Light Snow,0,2012-12-27 18:02:00
1:19 PM,26.6,21.2,80,29.48,0.8,WNW,8.1,-,0.00,Snow,Light Snow,300,2012-12-27 18:19:00
1:30 PM,26.6,21.2,80,29.49,1.0,WNW,9.2,18.4,0.00,Snow,Light Snow,290,2012-12-27 18:30:00
1:52 PM,27.0,21.9,81,29.53,0.8,West,9.2,-,0.00,Snow,Light Snow,280,2012-12-27 18:52:00
2:00 PM,26.6,21.2,80,29.50,0.8,WNW,8.1,19.6,0.00,Snow,Light Snow,290,2012-12-27 19:00:00
2:52 PM,26.1,21.9,84,29.55,0.5,WNW,12.7,19.6,0.01,Fog-Snow,Light Snow,290,2012-12-27 19:52:00
3:52 PM,26.1,21.9,84,29.57,0.5,West,11.5,19.6,0.01,Fog-Snow,Light Snow,280,2012-12-27 20:52:00
4:18 PM,26.6,21.2,80,29.56,0.8,West,10.4,19.6,0.00,Snow,Light Snow,280,2012-12-27 21:18:00
4:44 PM,26.6,21.2,80,29.57,1.5,West,11.5,18.4,0.00,Snow,Light Snow,280,2012-12-27 21:44:00
4:52 PM,26.1,21.0,81,29.60,1.5,West,10.4,19.6,0.00,Snow,Light Snow,280,2012-12-27 21:52:00
5:01 PM,26.6,21.2,80,29.58,1.2,West,9.2,-,0.00,Snow,Light Snow,270,2012-12-27 22:01:00
5:08 PM,26.6,21.2,80,29.58,1.2,West,9.2,-,0.00,Snow,Light Snow,270,2012-12-27 22:08:00
5:19 PM,26.6,21.2,80,29.59,1.5,West,10.4,-,0.00,Snow,Light Snow,270,2012-12-27 22:19:00
5:37 PM,26.6,19.4,74,29.60,2.5,West,9.2,17.3,0.00,Snow,Light Snow,260,2012-12-27 22:37:00
5:44 PM,26.6,19.4,74,29.60,3.0,West,10.4,17.3,0.00,Snow,Light Snow,260,2012-12-27 22:44:00
5:52 PM,26.1,19.9,78,29.63,4.0,West,11.5,17.3,0.00,Snow,Light Snow,270,2012-12-27 22:52:00
6:08 PM,26.6,19.4,74,29.61,10.0,West,10.4,18.4,0.00,,Overcast,270,2012-12-27 23:08:00
6:52 PM,26.1,18.0,71,29.65,10.0,West,11.5,19.6,0.00,,Overcast,280,2012-12-27 23:52:00
7:52 PM,26.1,18.0,71,29.69,10.0,WNW,9.2,17.3,N/A,,Overcast,290,2012-12-28 00:52:00
8:52 PM,25.0,19.9,81,29.72,5.0,West,8.1,-,N/A,,Haze,280,2012-12-28 01:52:00
9:30 PM,24.8,21.2,86,29.71,5.0,WNW,6.9,-,N/A,,Overcast,290,2012-12-28 02:30:00
9:52 PM,24.1,19.9,84,29.75,5.0,West,6.9,-,N/A,,Overcast,280,2012-12-28 02:52:00
10:00 PM,24.8,19.4,80,29.72,7.0,West,11.5,16.1,N/A,,Overcast,260,2012-12-28 03:00:00
10:10 PM,24.8,19.4,80,29.72,9.0,West,11.5,-,N/A,,Overcast,260,2012-12-28 03:10:00
10:18 PM,24.8,19.4,80,29.73,9.0,West,11.5,-,N/A,,Overcast,260,2012-12-28 03:18:00
10:52 PM,24.1,19.0,81,29.77,7.0,West,13.8,-,N/A,,Overcast,260,2012-12-28 03:52:00
11:52 PM,24.1,18.0,77,29.78,9.0,West,12.7,-,N/A,,Overcast,270,2012-12-28 04:52:00